sensor_id;sensor_type;location;lat;lon;timestamp;P1;durP1;ratioP1;P2;durP2;ratioP2
31386;SDS011;18017;50.124;8.688;2023-01-19T00:00:33;9.45;;;3.55;;
31386;SDS011;18017;50.124;8.688;2023-01-19T00:02:59;13.25;;;3.47;;
31386;SDS011;18017;50.124;8.688;2023-01-19T00:05:24;13.88;;;4.10;;
31386;SDS011;18017;50.124;8.688;2023-01-19T00:07:50;11.80;;;3.53;;
31386;SDS011;18017;50.124;8.688;2023-01-19T00:10:15;15.00;;;3.92;;
31386;SDS011;18017;50.124;8.688;2023-01-19T00:12:41;14.88;;;3.83;;
31386;SDS011;18017;50.124;8.688;2023-01-19T00:15:07;17.15;;;4.28;;
31386;SDS011;18017;50.124;8.688;2023-01-19T00:17:33;11.23;;;3.38;;
31386;SDS011;18017;50.124;8.688;2023-01-19T00:19:58;16.55;;;4.35;;
31386;SDS011;18017;50.124;8.688;2023-01-19T00:22:24;11.02;;;3.47;;
31386;SDS011;18017;50.124;8.688;2023-01-19T00:24:50;10.93;;;3.80;;
31386;SDS011;18017;50.124;8.688;2023-01-19T00:27:15;13.43;;;3.67;;
31386;SDS011;18017;50.124;8.688;2023-01-19T00:29:41;13.65;;;3.92;;
31386;SDS011;18017;50.124;8.688;2023-01-19T00:32:06;10.50;;;3.53;;
31386;SDS011;18017;50.124;8.688;2023-01-19T00:34:32;12.02;;;3.55;;
31386;SDS011;18017;50.124;8.688;2023-01-19T00:37:06;13.00;;;4.30;;
31386;SDS011;18017;50.124;8.688;2023-01-19T00:39:34;15.93;;;3.58;;
31386;SDS011;18017;50.124;8.688;2023-01-19T00:42:00;14.48;;;3.50;;
31386;SDS011;18017;50.124;8.688;2023-01-19T00:44:44;8.63;;;3.00;;
31386;SDS011;18017;50.124;8.688;2023-01-19T00:47:10;10.55;;;3.15;;
31386;SDS011;18017;50.124;8.688;2023-01-19T00:49:35;11.80;;;3.97;;
31386;SDS011;18017;50.124;8.688;2023-01-19T00:52:01;12.35;;;3.83;;
31386;SDS011;18017;50.124;8.688;2023-01-19T00:54:26;12.18;;;3.67;;
31386;SDS011;18017;50.124;8.688;2023-01-19T00:56:52;14.23;;;3.90;;
31386;SDS011;18017;50.124;8.688;2023-01-19T00:59:18;14.23;;;3.20;;
31386;SDS011;18017;50.124;8.688;2023-01-19T01:01:43;12.13;;;3.65;;
31386;SDS011;18017;50.124;8.688;2023-01-19T01:04:09;11.95;;;3.45;;
31386;SDS011;18017;50.124;8.688;2023-01-19T01:06:36;11.85;;;3.45;;
31386;SDS011;18017;50.124;8.688;2023-01-19T01:09:01;11.77;;;3.17;;
31386;SDS011;18017;50.124;8.688;2023-01-19T01:11:35;11.75;;;4.05;;
31386;SDS011;18017;50.124;8.688;2023-01-19T01:14:05;15.43;;;4.07;;
31386;SDS011;18017;50.124;8.688;2023-01-19T01:16:31;14.18;;;3.33;;
31386;SDS011;18017;50.124;8.688;2023-01-19T01:18:57;12.57;;;4.05;;
31386;SDS011;18017;50.124;8.688;2023-01-19T01:21:22;11.77;;;3.78;;
31386;SDS011;18017;50.124;8.688;2023-01-19T01:23:48;13.40;;;3.63;;
31386;SDS011;18017;50.124;8.688;2023-01-19T01:26:13;14.38;;;4.10;;
31386;SDS011;18017;50.124;8.688;2023-01-19T01:28:39;13.38;;;4.22;;
31386;SDS011;18017;50.124;8.688;2023-01-19T01:31:04;10.45;;;3.30;;
31386;SDS011;18017;50.124;8.688;2023-01-19T01:33:30;13.55;;;3.65;;
31386;SDS011;18017;50.124;8.688;2023-01-19T01:35:56;12.23;;;3.80;;
31386;SDS011;18017;50.124;8.688;2023-01-19T01:38:21;10.32;;;3.40;;
31386;SDS011;18017;50.124;8.688;2023-01-19T01:40:47;14.20;;;3.65;;
31386;SDS011;18017;50.124;8.688;2023-01-19T01:43:14;10.70;;;3.40;;
31386;SDS011;18017;50.124;8.688;2023-01-19T01:45:41;10.10;;;3.40;;
31386;SDS011;18017;50.124;8.688;2023-01-19T01:48:09;13.30;;;3.78;;
31386;SDS011;18017;50.124;8.688;2023-01-19T01:50:38;15.65;;;4.18;;
31386;SDS011;18017;50.124;8.688;2023-01-19T01:53:31;15.27;;;3.58;;
31386;SDS011;18017;50.124;8.688;2023-01-19T01:55:58;14.98;;;4.15;;
31386;SDS011;18017;50.124;8.688;2023-01-19T01:58:26;13.88;;;3.80;;
31386;SDS011;18017;50.124;8.688;2023-01-19T02:00:52;11.25;;;3.17;;
31386;SDS011;18017;50.124;8.688;2023-01-19T02:03:37;13.05;;;4.40;;
31386;SDS011;18017;50.124;8.688;2023-01-19T02:06:03;17.55;;;4.63;;
31386;SDS011;18017;50.124;8.688;2023-01-19T02:08:52;15.38;;;3.53;;
31386;SDS011;18017;50.124;8.688;2023-01-19T02:11:42;13.93;;;4.20;;
31386;SDS011;18017;50.124;8.688;2023-01-19T02:14:26;10.57;;;3.70;;
31386;SDS011;18017;50.124;8.688;2023-01-19T02:16:51;13.55;;;3.80;;
31386;SDS011;18017;50.124;8.688;2023-01-19T02:19:24;15.93;;;4.10;;
31386;SDS011;18017;50.124;8.688;2023-01-19T02:22:02;20.25;;;3.97;;
31386;SDS011;18017;50.124;8.688;2023-01-19T02:24:49;10.53;;;3.87;;
31386;SDS011;18017;50.124;8.688;2023-01-19T02:27:16;10.45;;;3.47;;
31386;SDS011;18017;50.124;8.688;2023-01-19T02:29:42;10.98;;;3.78;;
31386;SDS011;18017;50.124;8.688;2023-01-19T02:32:07;14.57;;;4.07;;
31386;SDS011;18017;50.124;8.688;2023-01-19T02:34:33;15.93;;;4.03;;
31386;SDS011;18017;50.124;8.688;2023-01-19T02:37:00;15.23;;;4.07;;
31386;SDS011;18017;50.124;8.688;2023-01-19T02:39:34;15.63;;;4.47;;
31386;SDS011;18017;50.124;8.688;2023-01-19T02:42:16;19.75;;;4.40;;
31386;SDS011;18017;50.124;8.688;2023-01-19T02:45:02;14.20;;;3.90;;
31386;SDS011;18017;50.124;8.688;2023-01-19T02:47:41;15.05;;;4.20;;
31386;SDS011;18017;50.124;8.688;2023-01-19T03:01:24;11.48;;;4.05;;
31386;SDS011;18017;50.124;8.688;2023-01-19T03:07:01;12.48;;;4.40;;
31386;SDS011;18017;50.124;8.688;2023-01-19T03:09:43;13.25;;;3.50;;
31386;SDS011;18017;50.124;8.688;2023-01-19T03:14:48;20.10;;;4.70;;
31386;SDS011;18017;50.124;8.688;2023-01-19T03:17:16;12.30;;;4.15;;
31386;SDS011;18017;50.124;8.688;2023-01-19T03:19:47;13.65;;;4.43;;
31386;SDS011;18017;50.124;8.688;2023-01-19T03:22:25;15.40;;;4.65;;
31386;SDS011;18017;50.124;8.688;2023-01-19T03:24:53;13.85;;;4.47;;
31386;SDS011;18017;50.124;8.688;2023-01-19T03:27:26;12.57;;;4.00;;
31386;SDS011;18017;50.124;8.688;2023-01-19T03:29:59;14.50;;;4.10;;
31386;SDS011;18017;50.124;8.688;2023-01-19T03:32:31;11.48;;;3.55;;
31386;SDS011;18017;50.124;8.688;2023-01-19T03:35:01;13.60;;;4.40;;
31386;SDS011;18017;50.124;8.688;2023-01-19T03:37:32;13.43;;;4.03;;
31386;SDS011;18017;50.124;8.688;2023-01-19T03:40:03;12.02;;;3.67;;
31386;SDS011;18017;50.124;8.688;2023-01-19T03:42:29;15.57;;;4.40;;
31386;SDS011;18017;50.124;8.688;2023-01-19T03:44:55;9.30;;;3.75;;
31386;SDS011;18017;50.124;8.688;2023-01-19T03:47:23;10.93;;;4.00;;
31386;SDS011;18017;50.124;8.688;2023-01-19T03:49:49;12.75;;;4.07;;
31386;SDS011;18017;50.124;8.688;2023-01-19T03:52:16;12.95;;;4.63;;
31386;SDS011;18017;50.124;8.688;2023-01-19T03:54:42;13.38;;;3.92;;
31386;SDS011;18017;50.124;8.688;2023-01-19T03:57:08;20.02;;;4.55;;
31386;SDS011;18017;50.124;8.688;2023-01-19T03:59:34;13.18;;;3.83;;
31386;SDS011;18017;50.124;8.688;2023-01-19T04:01:59;13.32;;;4.63;;
31386;SDS011;18017;50.124;8.688;2023-01-19T04:04:25;13.80;;;4.07;;
31386;SDS011;18017;50.124;8.688;2023-01-19T04:06:51;15.43;;;4.25;;
31386;SDS011;18017;50.124;8.688;2023-01-19T04:09:16;16.70;;;4.88;;
31386;SDS011;18017;50.124;8.688;2023-01-19T04:11:42;14.80;;;4.38;;
31386;SDS011;18017;50.124;8.688;2023-01-19T04:14:07;13.48;;;4.28;;
31386;SDS011;18017;50.124;8.688;2023-01-19T04:16:33;15.45;;;4.57;;
31386;SDS011;18017;50.124;8.688;2023-01-19T04:18:59;16.80;;;4.07;;
31386;SDS011;18017;50.124;8.688;2023-01-19T04:21:24;15.90;;;4.88;;
31386;SDS011;18017;50.124;8.688;2023-01-19T04:23:50;16.85;;;4.45;;
31386;SDS011;18017;50.124;8.688;2023-01-19T04:26:17;17.13;;;4.40;;
31386;SDS011;18017;50.124;8.688;2023-01-19T04:28:42;13.18;;;4.15;;
31386;SDS011;18017;50.124;8.688;2023-01-19T04:31:08;13.95;;;4.30;;
31386;SDS011;18017;50.124;8.688;2023-01-19T04:33:34;12.18;;;4.03;;
31386;SDS011;18017;50.124;8.688;2023-01-19T04:35:59;12.93;;;4.45;;
31386;SDS011;18017;50.124;8.688;2023-01-19T04:38:25;9.65;;;3.30;;
31386;SDS011;18017;50.124;8.688;2023-01-19T04:40:52;12.13;;;3.60;;
31386;SDS011;18017;50.124;8.688;2023-01-19T04:43:18;14.00;;;4.18;;
31386;SDS011;18017;50.124;8.688;2023-01-19T04:45:45;20.23;;;5.20;;
31386;SDS011;18017;50.124;8.688;2023-01-19T04:48:11;14.30;;;5.10;;
31386;SDS011;18017;50.124;8.688;2023-01-19T04:50:37;20.90;;;5.60;;
31386;SDS011;18017;50.124;8.688;2023-01-19T04:53:03;15.77;;;4.80;;
31386;SDS011;18017;50.124;8.688;2023-01-19T04:55:29;16.60;;;4.50;;
31386;SDS011;18017;50.124;8.688;2023-01-19T04:57:55;13.52;;;4.40;;
31386;SDS011;18017;50.124;8.688;2023-01-19T05:00:20;18.38;;;4.78;;
31386;SDS011;18017;50.124;8.688;2023-01-19T05:02:46;18.80;;;5.20;;
31386;SDS011;18017;50.124;8.688;2023-01-19T05:05:12;17.30;;;5.05;;
31386;SDS011;18017;50.124;8.688;2023-01-19T05:07:37;15.77;;;5.40;;
31386;SDS011;18017;50.124;8.688;2023-01-19T05:10:04;15.68;;;5.50;;
31386;SDS011;18017;50.124;8.688;2023-01-19T05:12:30;17.50;;;5.18;;
31386;SDS011;18017;50.124;8.688;2023-01-19T05:14:56;19.95;;;6.35;;
31386;SDS011;18017;50.124;8.688;2023-01-19T05:17:21;17.42;;;4.78;;
31386;SDS011;18017;50.124;8.688;2023-01-19T05:19:47;15.85;;;5.03;;
31386;SDS011;18017;50.124;8.688;2023-01-19T05:22:13;15.25;;;4.78;;
31386;SDS011;18017;50.124;8.688;2023-01-19T05:24:39;18.48;;;5.15;;
31386;SDS011;18017;50.124;8.688;2023-01-19T05:27:04;13.80;;;4.85;;
31386;SDS011;18017;50.124;8.688;2023-01-19T05:29:32;15.57;;;5.03;;
31386;SDS011;18017;50.124;8.688;2023-01-19T05:31:58;19.42;;;5.07;;
31386;SDS011;18017;50.124;8.688;2023-01-19T05:34:24;15.40;;;4.97;;
31386;SDS011;18017;50.124;8.688;2023-01-19T05:36:50;17.67;;;5.55;;
31386;SDS011;18017;50.124;8.688;2023-01-19T05:39:16;17.45;;;5.32;;
31386;SDS011;18017;50.124;8.688;2023-01-19T05:41:42;16.02;;;5.40;;
31386;SDS011;18017;50.124;8.688;2023-01-19T05:44:12;18.23;;;5.38;;
31386;SDS011;18017;50.124;8.688;2023-01-19T05:46:38;19.63;;;5.13;;
31386;SDS011;18017;50.124;8.688;2023-01-19T05:49:04;18.10;;;5.60;;
31386;SDS011;18017;50.124;8.688;2023-01-19T05:51:31;20.70;;;5.50;;
31386;SDS011;18017;50.124;8.688;2023-01-19T05:54:01;23.60;;;5.50;;
31386;SDS011;18017;50.124;8.688;2023-01-19T05:56:31;16.20;;;5.60;;
31386;SDS011;18017;50.124;8.688;2023-01-19T05:58:57;13.32;;;5.18;;
31386;SDS011;18017;50.124;8.688;2023-01-19T06:01:23;21.13;;;5.38;;
31386;SDS011;18017;50.124;8.688;2023-01-19T06:03:49;19.00;;;5.47;;
31386;SDS011;18017;50.124;8.688;2023-01-19T06:06:15;20.58;;;5.90;;
31386;SDS011;18017;50.124;8.688;2023-01-19T06:08:41;18.40;;;6.03;;
31386;SDS011;18017;50.124;8.688;2023-01-19T06:11:07;13.45;;;5.18;;
31386;SDS011;18017;50.124;8.688;2023-01-19T06:13:32;18.60;;;5.55;;
31386;SDS011;18017;50.124;8.688;2023-01-19T06:15:59;14.93;;;6.05;;
31386;SDS011;18017;50.124;8.688;2023-01-19T06:18:25;17.77;;;5.90;;
31386;SDS011;18017;50.124;8.688;2023-01-19T06:20:51;20.20;;;5.32;;
31386;SDS011;18017;50.124;8.688;2023-01-19T06:23:22;20.48;;;6.70;;
31386;SDS011;18017;50.124;8.688;2023-01-19T06:25:49;19.42;;;5.97;;
31386;SDS011;18017;50.124;8.688;2023-01-19T06:28:15;16.92;;;5.57;;
31386;SDS011;18017;50.124;8.688;2023-01-19T06:30:41;16.67;;;5.25;;
31386;SDS011;18017;50.124;8.688;2023-01-19T06:33:07;19.10;;;4.82;;
31386;SDS011;18017;50.124;8.688;2023-01-19T06:35:33;14.50;;;5.22;;
31386;SDS011;18017;50.124;8.688;2023-01-19T06:37:59;15.15;;;5.68;;
31386;SDS011;18017;50.124;8.688;2023-01-19T06:40:25;15.13;;;5.30;;
31386;SDS011;18017;50.124;8.688;2023-01-19T06:42:50;18.00;;;5.15;;
31386;SDS011;18017;50.124;8.688;2023-01-19T06:45:17;13.23;;;4.97;;
31386;SDS011;18017;50.124;8.688;2023-01-19T06:47:42;12.55;;;4.57;;
31386;SDS011;18017;50.124;8.688;2023-01-19T06:50:10;14.63;;;4.63;;
31386;SDS011;18017;50.124;8.688;2023-01-19T06:52:36;11.82;;;4.43;;
31386;SDS011;18017;50.124;8.688;2023-01-19T06:55:06;14.43;;;4.93;;
31386;SDS011;18017;50.124;8.688;2023-01-19T06:57:34;20.58;;;5.28;;
31386;SDS011;18017;50.124;8.688;2023-01-19T07:00:03;15.57;;;4.90;;
31386;SDS011;18017;50.124;8.688;2023-01-19T07:02:32;13.88;;;4.57;;
31386;SDS011;18017;50.124;8.688;2023-01-19T07:04:58;12.05;;;4.35;;
31386;SDS011;18017;50.124;8.688;2023-01-19T07:07:24;13.40;;;4.38;;
31386;SDS011;18017;50.124;8.688;2023-01-19T07:09:50;16.95;;;4.80;;
31386;SDS011;18017;50.124;8.688;2023-01-19T07:12:16;14.43;;;4.22;;
31386;SDS011;18017;50.124;8.688;2023-01-19T07:14:42;14.82;;;4.72;;
31386;SDS011;18017;50.124;8.688;2023-01-19T07:17:07;15.30;;;4.90;;
31386;SDS011;18017;50.124;8.688;2023-01-19T07:19:33;13.82;;;4.72;;
31386;SDS011;18017;50.124;8.688;2023-01-19T07:22:01;15.75;;;4.82;;
31386;SDS011;18017;50.124;8.688;2023-01-19T07:24:27;16.52;;;4.68;;
31386;SDS011;18017;50.124;8.688;2023-01-19T07:26:54;16.45;;;5.00;;
31386;SDS011;18017;50.124;8.688;2023-01-19T07:29:20;14.60;;;5.03;;
31386;SDS011;18017;50.124;8.688;2023-01-19T07:31:46;19.63;;;5.28;;
31386;SDS011;18017;50.124;8.688;2023-01-19T07:34:13;13.10;;;4.63;;
31386;SDS011;18017;50.124;8.688;2023-01-19T07:36:38;21.75;;;5.10;;
31386;SDS011;18017;50.124;8.688;2023-01-19T07:39:04;18.48;;;5.13;;
31386;SDS011;18017;50.124;8.688;2023-01-19T07:41:29;13.57;;;4.97;;
31386;SDS011;18017;50.124;8.688;2023-01-19T07:43:55;15.10;;;5.28;;
31386;SDS011;18017;50.124;8.688;2023-01-19T07:46:21;17.60;;;5.35;;
31386;SDS011;18017;50.124;8.688;2023-01-19T07:48:47;18.67;;;5.63;;
31386;SDS011;18017;50.124;8.688;2023-01-19T07:51:13;14.73;;;4.65;;
31386;SDS011;18017;50.124;8.688;2023-01-19T07:53:43;18.10;;;5.50;;
31386;SDS011;18017;50.124;8.688;2023-01-19T07:56:09;14.02;;;4.78;;
31386;SDS011;18017;50.124;8.688;2023-01-19T07:58:35;18.27;;;5.47;;
31386;SDS011;18017;50.124;8.688;2023-01-19T08:01:04;13.57;;;5.13;;
31386;SDS011;18017;50.124;8.688;2023-01-19T08:03:34;17.25;;;5.05;;
31386;SDS011;18017;50.124;8.688;2023-01-19T08:06:00;16.58;;;5.28;;
31386;SDS011;18017;50.124;8.688;2023-01-19T08:08:28;21.00;;;5.45;;
31386;SDS011;18017;50.124;8.688;2023-01-19T08:10:54;19.85;;;5.22;;
31386;SDS011;18017;50.124;8.688;2023-01-19T08:13:19;16.70;;;5.28;;
31386;SDS011;18017;50.124;8.688;2023-01-19T08:15:47;13.20;;;4.95;;
31386;SDS011;18017;50.124;8.688;2023-01-19T08:18:14;15.55;;;5.03;;
31386;SDS011;18017;50.124;8.688;2023-01-19T08:20:40;18.42;;;5.30;;
31386;SDS011;18017;50.124;8.688;2023-01-19T08:23:06;16.77;;;4.97;;
31386;SDS011;18017;50.124;8.688;2023-01-19T08:25:32;19.73;;;6.18;;
31386;SDS011;18017;50.124;8.688;2023-01-19T08:27:59;15.27;;;5.47;;
31386;SDS011;18017;50.124;8.688;2023-01-19T08:30:25;16.73;;;5.30;;
31386;SDS011;18017;50.124;8.688;2023-01-19T08:32:51;16.75;;;5.18;;
31386;SDS011;18017;50.124;8.688;2023-01-19T08:35:18;18.83;;;6.28;;
31386;SDS011;18017;50.124;8.688;2023-01-19T08:37:44;15.45;;;4.90;;
31386;SDS011;18017;50.124;8.688;2023-01-19T08:40:10;18.17;;;5.15;;
31386;SDS011;18017;50.124;8.688;2023-01-19T08:42:36;15.57;;;5.15;;
31386;SDS011;18017;50.124;8.688;2023-01-19T08:45:01;12.77;;;4.90;;
31386;SDS011;18017;50.124;8.688;2023-01-19T08:47:28;14.60;;;5.20;;
31386;SDS011;18017;50.124;8.688;2023-01-19T08:49:53;14.38;;;4.78;;
31386;SDS011;18017;50.124;8.688;2023-01-19T08:52:19;18.63;;;4.40;;
31386;SDS011;18017;50.124;8.688;2023-01-19T08:54:45;19.13;;;5.43;;
31386;SDS011;18017;50.124;8.688;2023-01-19T08:57:10;15.50;;;4.80;;
31386;SDS011;18017;50.124;8.688;2023-01-19T08:59:36;15.15;;;4.68;;
31386;SDS011;18017;50.124;8.688;2023-01-19T09:02:02;13.57;;;4.55;;
31386;SDS011;18017;50.124;8.688;2023-01-19T09:04:27;18.38;;;4.95;;
31386;SDS011;18017;50.124;8.688;2023-01-19T09:06:53;14.75;;;4.15;;
31386;SDS011;18017;50.124;8.688;2023-01-19T09:09:18;12.85;;;4.43;;
31386;SDS011;18017;50.124;8.688;2023-01-19T09:11:44;13.88;;;4.57;;
31386;SDS011;18017;50.124;8.688;2023-01-19T09:14:09;11.35;;;4.85;;
31386;SDS011;18017;50.124;8.688;2023-01-19T09:16:35;17.05;;;5.60;;
31386;SDS011;18017;50.124;8.688;2023-01-19T09:19:00;14.35;;;4.55;;
31386;SDS011;18017;50.124;8.688;2023-01-19T09:21:26;14.15;;;5.15;;
31386;SDS011;18017;50.124;8.688;2023-01-19T09:23:52;17.33;;;4.80;;
31386;SDS011;18017;50.124;8.688;2023-01-19T09:26:18;10.98;;;4.50;;
31386;SDS011;18017;50.124;8.688;2023-01-19T09:28:46;14.73;;;4.25;;
31386;SDS011;18017;50.124;8.688;2023-01-19T09:31:11;13.77;;;5.45;;
31386;SDS011;18017;50.124;8.688;2023-01-19T09:33:38;11.15;;;4.63;;
31386;SDS011;18017;50.124;8.688;2023-01-19T09:36:04;10.57;;;4.10;;
31386;SDS011;18017;50.124;8.688;2023-01-19T09:38:30;14.65;;;5.07;;
31386;SDS011;18017;50.124;8.688;2023-01-19T09:40:56;10.68;;;4.38;;
31386;SDS011;18017;50.124;8.688;2023-01-19T09:43:28;9.43;;;3.95;;
31386;SDS011;18017;50.124;8.688;2023-01-19T09:46:04;11.30;;;4.32;;
31386;SDS011;18017;50.124;8.688;2023-01-19T09:51:15;14.38;;;4.22;;
31386;SDS011;18017;50.124;8.688;2023-01-19T09:53:53;13.23;;;4.15;;
31386;SDS011;18017;50.124;8.688;2023-01-19T09:56:25;13.00;;;4.10;;
31386;SDS011;18017;50.124;8.688;2023-01-19T09:58:52;9.13;;;3.58;;
31386;SDS011;18017;50.124;8.688;2023-01-19T10:01:21;14.98;;;4.05;;
31386;SDS011;18017;50.124;8.688;2023-01-19T10:04:20;9.73;;;3.58;;
31386;SDS011;18017;50.124;8.688;2023-01-19T10:06:52;8.32;;;3.50;;
31386;SDS011;18017;50.124;8.688;2023-01-19T10:09:25;9.65;;;3.45;;
31386;SDS011;18017;50.124;8.688;2023-01-19T10:12:08;8.57;;;3.67;;
31386;SDS011;18017;50.124;8.688;2023-01-19T10:14:57;6.90;;;3.20;;
31386;SDS011;18017;50.124;8.688;2023-01-19T10:20:40;8.55;;;3.80;;
31386;SDS011;18017;50.124;8.688;2023-01-19T10:23:31;15.52;;;4.07;;
31386;SDS011;18017;50.124;8.688;2023-01-19T10:26:14;7.53;;;3.35;;
31386;SDS011;18017;50.124;8.688;2023-01-19T10:28:42;9.98;;;4.03;;
31386;SDS011;18017;50.124;8.688;2023-01-19T10:31:09;11.93;;;4.65;;
31386;SDS011;18017;50.124;8.688;2023-01-19T10:33:36;11.90;;;4.40;;
31386;SDS011;18017;50.124;8.688;2023-01-19T10:36:03;11.55;;;4.13;;
31386;SDS011;18017;50.124;8.688;2023-01-19T10:38:30;11.45;;;4.25;;
31386;SDS011;18017;50.124;8.688;2023-01-19T10:41:00;12.45;;;4.30;;
31386;SDS011;18017;50.124;8.688;2023-01-19T10:43:39;17.58;;;4.50;;
31386;SDS011;18017;50.124;8.688;2023-01-19T10:46:17;12.10;;;4.50;;
31386;SDS011;18017;50.124;8.688;2023-01-19T10:48:52;12.57;;;4.13;;
31386;SDS011;18017;50.124;8.688;2023-01-19T10:51:19;9.75;;;4.07;;
31386;SDS011;18017;50.124;8.688;2023-01-19T10:53:52;16.65;;;4.40;;
31386;SDS011;18017;50.124;8.688;2023-01-19T10:58:48;11.55;;;4.50;;
31386;SDS011;18017;50.124;8.688;2023-01-19T11:01:24;10.80;;;4.10;;
31386;SDS011;18017;50.124;8.688;2023-01-19T11:03:51;15.82;;;4.75;;
31386;SDS011;18017;50.124;8.688;2023-01-19T11:06:20;14.68;;;4.93;;
31386;SDS011;18017;50.124;8.688;2023-01-19T11:08:46;11.63;;;4.30;;
31386;SDS011;18017;50.124;8.688;2023-01-19T11:11:15;13.27;;;4.32;;
31386;SDS011;18017;50.124;8.688;2023-01-19T11:13:42;13.23;;;4.68;;
31386;SDS011;18017;50.124;8.688;2023-01-19T11:16:20;11.73;;;4.50;;
31386;SDS011;18017;50.124;8.688;2023-01-19T11:18:53;13.45;;;4.32;;
31386;SDS011;18017;50.124;8.688;2023-01-19T11:21:24;14.25;;;4.00;;
31386;SDS011;18017;50.124;8.688;2023-01-19T11:23:52;9.13;;;2.55;;
31386;SDS011;18017;50.124;8.688;2023-01-19T11:26:28;9.73;;;2.83;;
31386;SDS011;18017;50.124;8.688;2023-01-19T11:29:14;6.53;;;2.25;;
31386;SDS011;18017;50.124;8.688;2023-01-19T11:31:43;9.48;;;2.25;;
31386;SDS011;18017;50.124;8.688;2023-01-19T11:39:28;6.90;;;2.10;;
31386;SDS011;18017;50.124;8.688;2023-01-19T11:41:57;6.65;;;2.13;;
31386;SDS011;18017;50.124;8.688;2023-01-19T11:44:31;11.95;;;2.90;;
31386;SDS011;18017;50.124;8.688;2023-01-19T11:49:37;6.60;;;2.58;;
31386;SDS011;18017;50.124;8.688;2023-01-19T11:52:26;6.90;;;2.22;;
31386;SDS011;18017;50.124;8.688;2023-01-19T11:57:49;8.57;;;2.55;;
31386;SDS011;18017;50.124;8.688;2023-01-19T12:00:27;7.95;;;2.47;;
31386;SDS011;18017;50.124;8.688;2023-01-19T12:03:21;7.50;;;2.50;;
31386;SDS011;18017;50.124;8.688;2023-01-19T12:05:51;6.28;;;2.30;;
31386;SDS011;18017;50.124;8.688;2023-01-19T12:08:22;5.28;;;2.10;;
31386;SDS011;18017;50.124;8.688;2023-01-19T12:10:54;6.85;;;2.67;;
31386;SDS011;18017;50.124;8.688;2023-01-19T12:13:24;10.30;;;2.75;;
31386;SDS011;18017;50.124;8.688;2023-01-19T12:15:58;5.85;;;2.35;;
31386;SDS011;18017;50.124;8.688;2023-01-19T12:18:32;6.65;;;1.80;;
31386;SDS011;18017;50.124;8.688;2023-01-19T12:21:10;6.65;;;2.13;;
31386;SDS011;18017;50.124;8.688;2023-01-19T12:29:02;6.75;;;1.70;;
31386;SDS011;18017;50.124;8.688;2023-01-19T12:31:42;11.25;;;2.40;;
31386;SDS011;18017;50.124;8.688;2023-01-19T12:37:06;8.45;;;2.10;;
31386;SDS011;18017;50.124;8.688;2023-01-19T12:39:51;8.88;;;2.60;;
31386;SDS011;18017;50.124;8.688;2023-01-19T12:42:18;6.93;;;2.13;;
31386;SDS011;18017;50.124;8.688;2023-01-19T12:44:44;7.30;;;2.33;;
31386;SDS011;18017;50.124;8.688;2023-01-19T12:49:40;4.95;;;1.80;;
31386;SDS011;18017;50.124;8.688;2023-01-19T12:57:49;7.03;;;2.33;;
31386;SDS011;18017;50.124;8.688;2023-01-19T13:01:19;6.78;;;2.42;;
31386;SDS011;18017;50.124;8.688;2023-01-19T13:06:54;5.97;;;2.13;;
31386;SDS011;18017;50.124;8.688;2023-01-19T13:09:29;5.88;;;2.20;;
31386;SDS011;18017;50.124;8.688;2023-01-19T13:12:18;10.80;;;2.58;;
31386;SDS011;18017;50.124;8.688;2023-01-19T13:14:45;7.13;;;2.20;;
31386;SDS011;18017;50.124;8.688;2023-01-19T13:17:15;5.68;;;1.92;;
31386;SDS011;18017;50.124;8.688;2023-01-19T13:20:21;11.38;;;2.45;;
31386;SDS011;18017;50.124;8.688;2023-01-19T13:25:40;4.38;;;2.28;;
31386;SDS011;18017;50.124;8.688;2023-01-19T13:28:11;6.78;;;2.90;;
31386;SDS011;18017;50.124;8.688;2023-01-19T13:30:45;8.98;;;2.80;;
31386;SDS011;18017;50.124;8.688;2023-01-19T13:33:18;10.07;;;2.95;;
31386;SDS011;18017;50.124;8.688;2023-01-19T13:35:51;8.27;;;2.78;;
31386;SDS011;18017;50.124;8.688;2023-01-19T13:38:20;8.27;;;2.72;;
31386;SDS011;18017;50.124;8.688;2023-01-19T13:40:47;7.80;;;2.85;;
31386;SDS011;18017;50.124;8.688;2023-01-19T13:43:17;9.50;;;3.10;;
31386;SDS011;18017;50.124;8.688;2023-01-19T13:45:47;10.38;;;3.13;;
31386;SDS011;18017;50.124;8.688;2023-01-19T13:48:15;8.93;;;2.78;;
31386;SDS011;18017;50.124;8.688;2023-01-19T13:50:54;10.30;;;2.72;;
31386;SDS011;18017;50.124;8.688;2023-01-19T13:53:30;9.10;;;2.78;;
31386;SDS011;18017;50.124;8.688;2023-01-19T13:56:06;7.22;;;2.50;;
31386;SDS011;18017;50.124;8.688;2023-01-19T13:58:59;7.80;;;2.97;;
31386;SDS011;18017;50.124;8.688;2023-01-19T14:01:26;6.80;;;2.97;;
31386;SDS011;18017;50.124;8.688;2023-01-19T14:03:52;9.85;;;2.55;;
31386;SDS011;18017;50.124;8.688;2023-01-19T14:06:22;7.22;;;2.70;;
31386;SDS011;18017;50.124;8.688;2023-01-19T14:09:04;7.93;;;2.53;;
31386;SDS011;18017;50.124;8.688;2023-01-19T14:11:40;7.05;;;2.53;;
31386;SDS011;18017;50.124;8.688;2023-01-19T14:14:19;9.55;;;2.85;;
31386;SDS011;18017;50.124;8.688;2023-01-19T14:16:51;6.60;;;2.80;;
31386;SDS011;18017;50.124;8.688;2023-01-19T14:19:17;7.05;;;2.80;;
31386;SDS011;18017;50.124;8.688;2023-01-19T14:21:43;9.40;;;2.80;;
31386;SDS011;18017;50.124;8.688;2023-01-19T14:24:17;7.45;;;2.92;;
31386;SDS011;18017;50.124;8.688;2023-01-19T14:26:45;7.85;;;2.70;;
31386;SDS011;18017;50.124;8.688;2023-01-19T14:29:17;8.47;;;2.67;;
31386;SDS011;18017;50.124;8.688;2023-01-19T14:31:51;8.20;;;3.08;;
31386;SDS011;18017;50.124;8.688;2023-01-19T14:42:42;12.50;;;3.30;;
31386;SDS011;18017;50.124;8.688;2023-01-19T14:45:56;8.32;;;2.78;;
31386;SDS011;18017;50.124;8.688;2023-01-19T14:47:59;7.85;;;3.58;;
31386;SDS011;18017;50.124;8.688;2023-01-19T14:50:33;10.25;;;3.63;;
31386;SDS011;18017;50.124;8.688;2023-01-19T14:53:02;10.80;;;3.50;;
31386;SDS011;18017;50.124;8.688;2023-01-19T14:55:42;12.55;;;3.78;;
31386;SDS011;18017;50.124;8.688;2023-01-19T14:58:15;8.98;;;3.80;;
31386;SDS011;18017;50.124;8.688;2023-01-19T15:00:42;14.73;;;3.63;;
31386;SDS011;18017;50.124;8.688;2023-01-19T15:03:08;12.63;;;3.58;;
31386;SDS011;18017;50.124;8.688;2023-01-19T15:05:35;12.90;;;3.38;;
31386;SDS011;18017;50.124;8.688;2023-01-19T15:08:05;12.18;;;3.72;;
31386;SDS011;18017;50.124;8.688;2023-01-19T15:10:31;13.68;;;4.10;;
31386;SDS011;18017;50.124;8.688;2023-01-19T15:12:59;13.20;;;4.28;;
31386;SDS011;18017;50.124;8.688;2023-01-19T15:15:26;13.30;;;4.70;;
31386;SDS011;18017;50.124;8.688;2023-01-19T15:17:57;9.52;;;3.28;;
31386;SDS011;18017;50.124;8.688;2023-01-19T15:20:25;12.80;;;3.83;;
31386;SDS011;18017;50.124;8.688;2023-01-19T15:22:50;13.20;;;4.32;;
31386;SDS011;18017;50.124;8.688;2023-01-19T15:25:17;13.73;;;4.65;;
31386;SDS011;18017;50.124;8.688;2023-01-19T15:27:45;13.63;;;4.50;;
31386;SDS011;18017;50.124;8.688;2023-01-19T15:30:12;13.30;;;4.03;;
31386;SDS011;18017;50.124;8.688;2023-01-19T15:32:47;13.27;;;3.80;;
31386;SDS011;18017;50.124;8.688;2023-01-19T15:35:16;12.93;;;4.25;;
31386;SDS011;18017;50.124;8.688;2023-01-19T15:37:44;13.95;;;4.57;;
31386;SDS011;18017;50.124;8.688;2023-01-19T15:40:10;15.57;;;4.85;;
31386;SDS011;18017;50.124;8.688;2023-01-19T15:42:37;13.68;;;4.55;;
31386;SDS011;18017;50.124;8.688;2023-01-19T15:45:10;17.75;;;4.43;;
31386;SDS011;18017;50.124;8.688;2023-01-19T15:47:47;13.30;;;3.90;;
31386;SDS011;18017;50.124;8.688;2023-01-19T15:50:13;12.25;;;3.97;;
31386;SDS011;18017;50.124;8.688;2023-01-19T15:52:38;17.30;;;4.13;;
31386;SDS011;18017;50.124;8.688;2023-01-19T15:55:04;11.50;;;4.38;;
31386;SDS011;18017;50.124;8.688;2023-01-19T15:57:30;15.98;;;4.30;;